createdAt,value
2018-08-16T00:00:08.420Z,19.97
2018-08-16T00:02:40.372Z,19.53
2018-08-16T00:05:14.188Z,18.30
2018-08-16T00:07:43.927Z,19.33
2018-08-16T00:10:23.000Z,18.23
2018-08-16T00:12:56.056Z,18.67
2018-08-16T00:15:26.016Z,20.50
2018-08-16T00:17:57.765Z,17.97
2018-08-16T00:20:30.459Z,20.20
2018-08-16T00:23:02.700Z,19.73
2018-08-16T00:28:05.182Z,19.40
2018-08-16T00:30:37.692Z,18.73
2018-08-16T00:33:08.428Z,19.17
2018-08-16T00:35:38.536Z,18.60
2018-08-16T00:40:43.259Z,19.33
2018-08-16T00:43:15.753Z,16.70
2018-08-16T00:45:46.027Z,18.50
2018-08-16T00:48:18.960Z,20.20
2018-08-16T00:50:49.710Z,18.83
2018-08-16T00:53:21.496Z,18.23
2018-08-16T00:55:53.506Z,19.13
2018-08-16T00:58:26.506Z,19.00
2018-08-16T01:00:56.543Z,18.23
2018-08-16T01:03:25.883Z,18.27
2018-08-16T01:05:57.777Z,18.50
2018-08-16T01:11:08.530Z,19.00
2018-08-16T01:13:39.391Z,19.30
2018-08-16T01:16:10.934Z,17.90
2018-08-16T01:23:55.894Z,17.80
2018-08-16T01:26:25.215Z,19.50
2018-08-16T01:28:54.596Z,18.90
2018-08-16T01:31:24.262Z,20.23
2018-08-16T01:33:53.424Z,20.00
2018-08-16T01:36:22.752Z,19.27
2018-08-16T01:38:52.213Z,22.90
2018-08-16T01:41:20.635Z,19.83
2018-08-16T01:43:50.826Z,20.50
2018-08-16T01:46:20.367Z,18.57
2018-08-16T01:48:48.897Z,21.20
2018-08-16T01:51:17.960Z,23.27
2018-08-16T01:53:46.790Z,20.40
2018-08-16T01:56:15.518Z,18.30
2018-08-16T01:58:44.078Z,27.00
2018-08-16T02:01:12.861Z,20.83
2018-08-16T02:03:41.492Z,23.00
2018-08-16T02:06:10.201Z,22.00
2018-08-16T02:08:38.411Z,20.17
2018-08-16T02:11:07.903Z,19.97
2018-08-16T02:13:36.485Z,22.60
2018-08-16T02:16:05.413Z,20.23
2018-08-16T02:18:34.729Z,23.00
2018-08-16T02:21:03.330Z,22.77
2018-08-16T02:23:32.469Z,20.07
2018-08-16T02:26:01.089Z,21.03
2018-08-16T02:28:30.242Z,20.50
2018-08-16T02:30:58.870Z,20.57
2018-08-16T02:33:27.566Z,22.07
2018-08-16T02:35:56.184Z,22.87
2018-08-16T02:38:24.430Z,22.47
2018-08-16T02:40:53.017Z,22.53
2018-08-16T02:43:21.738Z,21.00
2018-08-16T02:45:50.364Z,19.93
2018-08-16T02:48:18.990Z,22.10
2018-08-16T02:50:47.473Z,23.27
2018-08-16T02:53:16.163Z,21.77
2018-08-16T02:55:45.595Z,20.13
2018-08-16T02:58:14.229Z,21.80
2018-08-16T03:00:42.756Z,24.07
2018-08-16T03:03:11.256Z,21.33
2018-08-16T03:05:39.794Z,20.07
2018-08-16T03:08:08.658Z,19.57
2018-08-16T03:10:37.124Z,19.97
2018-08-16T03:13:05.612Z,24.23
2018-08-16T03:15:34.367Z,20.50
2018-08-16T03:18:02.935Z,22.07
2018-08-16T03:20:32.275Z,20.60
2018-08-16T03:23:00.845Z,19.67
2018-08-16T03:25:29.320Z,19.73
2018-08-16T03:27:57.788Z,20.13
2018-08-16T03:30:26.280Z,19.77
2018-08-16T03:32:55.883Z,18.80
2018-08-16T03:35:25.431Z,19.03
2018-08-16T03:37:54.125Z,20.90
2018-08-16T03:40:22.645Z,17.83
2018-08-16T03:42:51.267Z,18.97
2018-08-16T03:45:19.876Z,18.77
2018-08-16T03:47:48.621Z,19.90
2018-08-16T03:50:17.188Z,22.03
2018-08-16T03:52:46.582Z,19.07
2018-08-16T03:55:15.378Z,22.27
2018-08-16T03:57:43.932Z,21.27
2018-08-16T04:00:12.624Z,22.63
2018-08-16T04:02:41.328Z,19.10
2018-08-16T04:05:09.937Z,19.90
2018-08-16T04:07:38.549Z,21.83
2018-08-16T04:10:07.051Z,22.80
2018-08-16T04:12:35.790Z,19.13
2018-08-16T04:15:04.414Z,19.20
2018-08-16T04:17:37.311Z,20.70
2018-08-16T04:20:07.440Z,19.90
2018-08-16T04:22:36.054Z,19.50
2018-08-16T04:25:05.244Z,21.40
2018-08-16T04:27:33.894Z,18.97
2018-08-16T04:30:02.394Z,19.50
2018-08-16T04:32:30.915Z,20.63
2018-08-16T04:34:59.422Z,22.00
2018-08-16T04:37:28.120Z,20.47
2018-08-16T04:39:56.670Z,22.47
2018-08-16T04:42:25.289Z,19.80
2018-08-16T04:44:53.864Z,20.67
2018-08-16T04:47:22.042Z,19.83
2018-08-16T04:49:50.690Z,22.73
2018-08-16T04:52:19.181Z,22.07
2018-08-16T04:54:47.635Z,22.70
2018-08-16T04:57:16.735Z,21.90
2018-08-16T04:59:45.246Z,19.63
2018-08-16T05:02:13.830Z,19.33
2018-08-16T05:04:42.424Z,22.50
2018-08-16T05:07:10.882Z,19.67
2018-08-16T05:09:39.331Z,21.33
2018-08-16T05:12:07.932Z,22.37
2018-08-16T05:14:36.434Z,20.80
2018-08-16T05:17:04.983Z,20.53
2018-08-16T05:19:34.394Z,20.97
2018-08-16T05:22:02.943Z,19.10
2018-08-16T05:24:31.422Z,19.50
2018-08-16T05:26:59.966Z,18.20
2018-08-16T05:29:28.540Z,19.27
2018-08-16T05:31:57.149Z,18.63
2018-08-16T05:34:25.729Z,18.70
2018-08-16T05:36:54.348Z,17.57
2018-08-16T05:39:22.951Z,18.80
2018-08-16T05:41:51.582Z,18.10
2018-08-16T05:44:20.110Z,18.63
2018-08-16T05:46:48.796Z,18.37
2018-08-16T05:49:17.414Z,16.97
2018-08-16T05:51:46.143Z,17.70
2018-08-16T05:54:15.887Z,17.83
2018-08-16T05:56:45.425Z,17.30
2018-08-16T05:59:14.937Z,19.63
2018-08-16T06:01:44.780Z,16.97
2018-08-16T06:04:14.023Z,16.63
2018-08-16T06:06:42.662Z,15.67
2018-08-16T06:09:11.613Z,14.67
2018-08-16T06:11:40.194Z,15.93
2018-08-16T06:14:10.419Z,15.97
2018-08-16T06:16:39.162Z,14.50
2018-08-16T06:19:08.182Z,16.10
2018-08-16T06:21:38.578Z,14.27
2018-08-16T06:24:09.650Z,14.17
2018-08-16T06:26:38.252Z,14.00
2018-08-16T06:29:08.193Z,14.77
2018-08-16T06:31:36.733Z,13.87
2018-08-16T06:34:05.710Z,14.43
2018-08-16T06:36:34.918Z,14.47
2018-08-16T06:39:05.712Z,14.13
2018-08-16T06:41:36.796Z,14.73
2018-08-16T06:44:05.754Z,11.80
2018-08-16T06:46:36.464Z,11.33
2018-08-16T06:49:04.994Z,10.50
2018-08-16T06:51:33.672Z,10.13
2018-08-16T06:54:03.979Z,9.93
2018-08-16T06:56:33.123Z,9.83
2018-08-16T06:59:01.810Z,10.33
2018-08-16T07:01:30.557Z,11.77
2018-08-16T07:03:59.321Z,8.60
2018-08-16T07:06:32.029Z,10.20
2018-08-16T07:09:00.685Z,11.80
2018-08-16T07:11:30.329Z,11.20
2018-08-16T07:13:59.096Z,8.67
2018-08-16T07:16:27.735Z,7.70
2018-08-16T07:18:56.191Z,7.80
2018-08-16T07:21:24.632Z,7.30
2018-08-16T07:23:53.114Z,7.87
2018-08-16T07:26:21.618Z,7.33
2018-08-16T07:28:57.019Z,8.10
2018-08-16T07:31:25.632Z,8.83
2018-08-16T07:33:54.302Z,7.53
2018-08-16T07:36:22.993Z,9.40
2018-08-16T07:38:51.597Z,7.80
2018-08-16T07:41:21.209Z,8.27
2018-08-16T07:43:49.779Z,7.40
2018-08-16T07:46:18.531Z,8.03
2018-08-16T07:48:47.010Z,7.57
2018-08-16T07:51:15.762Z,7.73
2018-08-16T07:53:44.333Z,9.10
2018-08-16T07:56:13.646Z,6.97
2018-08-16T07:58:42.198Z,11.90
2018-08-16T08:01:14.330Z,6.90
2018-08-16T08:03:42.936Z,7.40
2018-08-16T08:06:11.533Z,6.73
2018-08-16T08:08:40.090Z,6.10
2018-08-16T08:11:10.182Z,6.30
2018-08-16T08:13:38.708Z,6.53
2018-08-16T08:16:07.259Z,6.20
2018-08-16T08:18:35.961Z,7.13
2018-08-16T08:21:04.605Z,7.00
2018-08-16T08:23:33.142Z,6.40
2018-08-16T08:26:01.639Z,5.63
2018-08-16T08:28:30.198Z,5.87
2018-08-16T08:30:58.778Z,4.47
2018-08-16T08:33:27.280Z,5.27
2018-08-16T08:37:11.286Z,4.50
2018-08-16T08:39:39.796Z,4.67
2018-08-16T08:42:08.257Z,5.20
2018-08-16T08:44:36.954Z,4.50
2018-08-16T08:47:05.588Z,4.17
2018-08-16T08:49:35.457Z,3.83
2018-08-16T08:52:05.070Z,4.53
2018-08-16T08:54:54.911Z,3.60
2018-08-16T08:57:40.644Z,3.33
2018-08-16T09:00:09.254Z,3.67
2018-08-16T09:02:37.901Z,5.23
2018-08-16T09:05:08.238Z,3.33
2018-08-16T09:07:36.949Z,4.50
2018-08-16T09:11:20.508Z,4.13
2018-08-16T09:14:07.933Z,3.93
2018-08-16T09:16:40.993Z,4.03
2018-08-16T09:19:10.731Z,5.17
2018-08-16T09:21:40.513Z,4.00
2018-08-16T09:24:10.172Z,4.93
2018-08-16T09:26:43.752Z,4.53
2018-08-16T09:30:16.065Z,4.00
2018-08-16T09:33:01.910Z,4.30
2018-08-16T09:35:30.484Z,4.17
2018-08-16T09:37:59.101Z,4.10
2018-08-16T09:40:27.375Z,3.73
2018-08-16T09:42:56.285Z,4.97
2018-08-16T09:45:50.192Z,4.53
2018-08-16T09:48:46.044Z,6.00
2018-08-16T09:51:15.843Z,4.93
2018-08-16T09:53:44.692Z,4.40
2018-08-16T09:56:13.305Z,4.03
2018-08-16T09:58:42.571Z,4.63
2018-08-16T10:01:12.547Z,4.90
2018-08-16T10:03:42.761Z,4.00
2018-08-16T10:06:12.691Z,4.47
2018-08-16T10:08:41.877Z,4.67
2018-08-16T10:11:10.587Z,5.00
2018-08-16T10:13:40.214Z,5.10
2018-08-16T10:16:09.620Z,5.40
2018-08-16T10:18:38.388Z,5.90
2018-08-16T10:21:07.194Z,6.30
2018-08-16T10:23:36.084Z,5.90
2018-08-16T10:26:04.834Z,5.73
2018-08-16T10:28:34.293Z,5.00
2018-08-16T10:31:02.955Z,5.00
2018-08-16T10:33:31.552Z,4.80
2018-08-16T10:36:01.393Z,4.70
2018-08-16T10:38:30.849Z,5.23
2018-08-16T10:41:00.170Z,5.50
2018-08-16T10:43:29.953Z,5.87
2018-08-16T10:45:59.433Z,6.47
2018-08-16T10:48:29.036Z,6.60
2018-08-16T10:50:58.296Z,7.37
2018-08-16T10:53:28.152Z,6.50
2018-08-16T10:55:59.420Z,6.83
2018-08-16T10:58:29.444Z,6.83
2018-08-16T11:00:58.479Z,6.50
2018-08-16T11:03:28.656Z,6.57
2018-08-16T11:05:58.541Z,7.13
2018-08-16T11:08:29.268Z,6.60
2018-08-16T11:10:57.882Z,7.37
2018-08-16T11:13:27.133Z,7.53
2018-08-16T11:15:55.536Z,8.63
2018-08-16T11:18:24.891Z,8.83
2018-08-16T11:20:53.391Z,7.87
2018-08-16T11:23:22.093Z,7.13
2018-08-16T11:25:50.591Z,7.27
2018-08-16T11:30:55.395Z,7.60
2018-08-16T11:33:24.207Z,8.73
2018-08-16T11:35:52.765Z,9.77
2018-08-16T11:38:21.202Z,10.27
2018-08-16T11:40:50.533Z,10.40
2018-08-16T11:43:20.252Z,11.03
2018-08-16T11:45:48.687Z,10.63
2018-08-16T11:48:17.277Z,10.23
2018-08-16T11:50:45.879Z,10.57
2018-08-16T11:53:14.611Z,9.00
2018-08-16T11:55:43.209Z,8.53
2018-08-16T11:58:13.591Z,8.70
2018-08-16T12:03:15.435Z,8.57
2018-08-16T12:05:44.016Z,8.10
2018-08-16T12:08:12.573Z,7.60
2018-08-16T12:10:41.174Z,7.43
2018-08-16T12:13:09.688Z,6.77
2018-08-16T12:15:38.754Z,6.93
2018-08-16T12:18:07.211Z,6.63
2018-08-16T12:20:35.921Z,5.70
2018-08-16T12:23:04.578Z,5.93
2018-08-16T12:25:33.442Z,6.67
2018-08-16T12:28:01.974Z,5.90
2018-08-16T12:30:31.312Z,7.10
2018-08-16T12:32:59.984Z,7.47
2018-08-16T12:35:29.088Z,10.37
2018-08-16T12:37:57.606Z,8.17
2018-08-16T12:40:26.789Z,8.90
2018-08-16T12:42:55.279Z,9.00
2018-08-16T12:45:23.809Z,9.07
2018-08-16T12:47:52.785Z,9.20
2018-08-16T12:50:21.227Z,9.60
2018-08-16T12:52:50.858Z,9.50
2018-08-16T12:55:19.061Z,9.93
2018-08-16T12:57:47.304Z,9.13
2018-08-16T13:00:17.636Z,8.13
2018-08-16T13:02:47.862Z,9.50
2018-08-16T13:05:16.424Z,8.60
2018-08-16T13:07:44.964Z,8.30
2018-08-16T13:10:14.133Z,7.53
2018-08-16T13:12:42.594Z,7.07
2018-08-16T13:15:11.258Z,7.10
2018-08-16T13:17:40.386Z,7.60
2018-08-16T13:20:11.120Z,6.03
2018-08-16T13:22:39.908Z,7.90
2018-08-16T13:25:09.664Z,8.23
2018-08-16T13:27:38.230Z,7.60
2018-08-16T13:30:07.942Z,7.97
2018-08-16T13:35:11.555Z,6.57
2018-08-16T13:37:41.225Z,7.07
2018-08-16T13:40:12.064Z,8.00
2018-08-16T13:42:43.515Z,8.00
2018-08-16T13:45:12.015Z,8.80
2018-08-16T13:47:40.901Z,9.50
2018-08-16T13:50:11.154Z,9.33
2018-08-16T13:52:39.761Z,8.13
2018-08-16T13:55:08.203Z,9.20
2018-08-16T13:57:37.324Z,8.27
2018-08-16T14:00:08.641Z,8.73
2018-08-16T14:02:37.440Z,9.20
2018-08-16T14:05:07.839Z,9.43
2018-08-16T14:07:41.191Z,9.57
2018-08-16T14:10:10.332Z,9.47
2018-08-16T14:12:39.088Z,10.57
2018-08-16T14:15:09.237Z,9.17
2018-08-16T14:17:38.123Z,9.17
2018-08-16T14:20:07.742Z,8.80
2018-08-16T14:22:36.782Z,9.03
2018-08-16T14:25:06.600Z,10.03
2018-08-16T14:27:35.315Z,10.37
2018-08-16T14:30:07.010Z,8.80
2018-08-16T14:32:36.531Z,9.20
2018-08-16T14:35:05.273Z,9.83
2018-08-16T14:37:33.953Z,10.60
2018-08-16T14:40:02.635Z,10.97
2018-08-16T14:42:31.876Z,9.93
2018-08-16T14:45:00.405Z,9.97
2018-08-16T14:47:29.042Z,9.13
2018-08-16T14:50:01.456Z,9.80
2018-08-16T14:52:29.870Z,9.53
2018-08-16T14:54:58.512Z,8.70
2018-08-16T14:57:27.728Z,9.33
2018-08-16T14:59:56.446Z,9.00
2018-08-16T15:02:27.314Z,9.00
2018-08-16T15:04:56.554Z,8.23
2018-08-16T15:07:26.295Z,9.80
2018-08-16T15:09:55.330Z,9.80
2018-08-16T15:12:24.153Z,9.00
2018-08-16T15:14:53.171Z,9.07
2018-08-16T15:17:22.347Z,10.07
2018-08-16T15:19:50.925Z,10.70
2018-08-16T15:22:19.838Z,8.40
2018-08-16T15:24:48.808Z,9.37
2018-08-16T15:27:19.300Z,10.03
2018-08-16T15:29:47.943Z,9.20
2018-08-16T15:32:16.593Z,9.90
2018-08-16T15:34:45.173Z,8.70
2018-08-16T15:37:14.467Z,9.53
2018-08-16T15:39:44.217Z,8.70
2018-08-16T15:42:13.645Z,8.90
2018-08-16T15:44:42.809Z,9.73
2018-08-16T15:47:12.603Z,9.20
2018-08-16T15:49:41.757Z,9.60
2018-08-16T15:52:13.899Z,9.27
2018-08-16T15:54:42.729Z,9.30
2018-08-16T15:57:11.456Z,10.43
2018-08-16T15:59:40.718Z,11.77
2018-08-16T16:02:09.603Z,10.63
2018-08-16T16:04:38.428Z,10.30
2018-08-16T16:07:07.128Z,9.40
2018-08-16T16:09:37.389Z,9.63
2018-08-16T16:12:06.691Z,10.60
2018-08-16T16:14:35.315Z,12.20
2018-08-16T16:17:04.251Z,8.87
2018-08-16T16:19:33.037Z,9.27
2018-08-16T16:22:02.588Z,6.73
2018-08-16T16:24:31.743Z,8.50
2018-08-16T16:27:00.624Z,7.97
2018-08-16T16:29:29.109Z,8.50
2018-08-16T16:31:57.717Z,7.03
2018-08-16T16:34:27.350Z,8.20
2018-08-16T16:36:56.715Z,8.27
2018-08-16T16:41:59.048Z,7.27
2018-08-16T16:44:28.373Z,7.20
2018-08-16T16:46:56.960Z,8.77
2018-08-16T16:49:25.783Z,7.73
2018-08-16T16:51:54.464Z,7.00
2018-08-16T16:54:23.769Z,8.63
2018-08-16T16:56:53.303Z,7.10
2018-08-16T16:59:21.969Z,7.23
2018-08-16T17:01:50.581Z,7.63
2018-08-16T17:04:18.981Z,6.17
2018-08-16T17:06:47.516Z,6.70
2018-08-16T17:09:16.202Z,6.33
2018-08-16T17:11:44.809Z,9.03
2018-08-16T17:14:13.476Z,5.97
2018-08-16T17:16:45.772Z,6.57
2018-08-16T17:19:14.236Z,6.33
2018-08-16T17:21:42.837Z,6.77
2018-08-16T17:24:11.383Z,6.20
2018-08-16T17:26:39.937Z,5.70
2018-08-16T17:29:08.790Z,6.73
2018-08-16T17:31:39.413Z,6.03
2018-08-16T17:34:08.040Z,6.97
2018-08-16T17:36:36.529Z,6.33
2018-08-16T17:39:06.414Z,8.87
2018-08-16T17:41:35.984Z,6.67
2018-08-16T17:44:04.564Z,8.27
2018-08-16T17:46:33.020Z,6.20
2018-08-16T17:49:03.522Z,7.30
2018-08-16T17:51:32.248Z,6.30
2018-08-16T17:54:00.826Z,7.10
2018-08-16T17:56:29.559Z,6.50
2018-08-16T17:58:58.489Z,7.47
2018-08-16T18:01:27.297Z,6.47
2018-08-16T18:03:56.023Z,6.20
2018-08-16T18:06:24.807Z,10.17
2018-08-16T18:08:53.730Z,8.30
2018-08-16T18:11:22.445Z,6.50
2018-08-16T18:13:51.282Z,8.50
2018-08-16T18:16:21.430Z,5.77
2018-08-16T18:18:50.196Z,6.00
2018-08-16T18:21:18.922Z,5.53
2018-08-16T18:23:48.905Z,8.80
2018-08-16T18:26:18.597Z,6.37
2018-08-16T18:28:47.424Z,6.60
2018-08-16T18:31:16.387Z,6.97
2018-08-16T18:33:45.209Z,7.93
2018-08-16T18:36:13.987Z,6.93
2018-08-16T18:38:44.066Z,6.90
2018-08-16T18:41:13.936Z,8.03
2018-08-16T18:43:42.446Z,6.33
2018-08-16T18:46:11.316Z,6.00
2018-08-16T18:48:40.915Z,8.73
2018-08-16T18:51:09.502Z,5.53
2018-08-16T18:53:37.960Z,6.63
2018-08-16T18:56:07.755Z,6.77
2018-08-16T18:58:36.375Z,6.30
2018-08-16T19:01:05.587Z,5.80
2018-08-16T19:03:34.373Z,5.67
2018-08-16T19:06:03.026Z,6.70
2018-08-16T19:08:31.671Z,5.73
2018-08-16T19:11:00.368Z,6.20
2018-08-16T19:13:28.853Z,7.00
2018-08-16T19:15:58.353Z,5.97
2018-08-16T19:18:28.622Z,6.40
2018-08-16T19:20:58.304Z,6.63
2018-08-16T19:23:27.854Z,6.10
2018-08-16T19:25:57.836Z,7.47
2018-08-16T19:28:27.188Z,6.83
2018-08-16T19:30:56.043Z,7.50
2018-08-16T19:33:25.897Z,7.60
2018-08-16T19:35:54.736Z,7.13
2018-08-16T19:38:24.060Z,5.70
2018-08-16T19:40:53.008Z,7.23
2018-08-16T19:43:21.282Z,9.00
2018-08-16T19:45:51.737Z,6.13
2018-08-16T19:48:20.401Z,6.60
2018-08-16T19:50:49.096Z,8.73
2018-08-16T19:53:19.338Z,6.53
2018-08-16T19:55:48.516Z,6.53
2018-08-16T19:58:17.151Z,7.57
2018-08-16T20:00:46.315Z,6.97
2018-08-16T20:03:15.796Z,7.37
2018-08-16T20:05:46.709Z,7.60
2018-08-16T20:08:15.319Z,11.77
2018-08-16T20:10:44.479Z,8.33
2018-08-16T20:13:13.208Z,7.63
2018-08-16T20:15:41.928Z,7.57
2018-08-16T20:18:11.822Z,8.67
2018-08-16T20:20:40.592Z,8.90
2018-08-16T20:23:10.172Z,11.73
2018-08-16T20:25:39.580Z,10.50
2018-08-16T20:28:08.369Z,9.53
2018-08-16T20:30:37.036Z,11.40
2018-08-16T20:33:06.293Z,12.23
2018-08-16T20:35:37.199Z,9.90
2018-08-16T20:38:05.907Z,10.03
2018-08-16T20:40:36.791Z,8.67
2018-08-16T20:43:05.533Z,8.17
2018-08-16T20:45:34.260Z,10.07
2018-08-16T20:48:03.298Z,10.60
2018-08-16T20:50:32.104Z,9.97
2018-08-16T20:53:00.732Z,10.70
2018-08-16T20:55:31.084Z,9.37
2018-08-16T20:58:00.141Z,12.70
2018-08-16T21:00:28.890Z,10.07
2018-08-16T21:02:58.157Z,11.47
2018-08-16T21:05:27.110Z,11.10
2018-08-16T21:07:55.775Z,9.93
2018-08-16T21:10:24.449Z,11.93
2018-08-16T21:12:53.105Z,11.93
2018-08-16T21:15:21.716Z,11.10
2018-08-16T21:17:50.824Z,11.23
2018-08-16T21:20:19.675Z,13.63
2018-08-16T21:22:48.754Z,12.77
2018-08-16T21:25:17.998Z,10.30
2018-08-16T21:27:46.689Z,9.67
2018-08-16T21:30:15.563Z,12.23
2018-08-16T21:32:44.847Z,9.73
2018-08-16T21:35:13.426Z,10.83
2018-08-16T21:37:42.166Z,10.30
2018-08-16T21:40:10.750Z,11.27
2018-08-16T21:42:39.379Z,15.33
2018-08-16T21:45:09.007Z,9.77
2018-08-16T21:47:38.896Z,9.80
2018-08-16T21:50:08.371Z,12.23
2018-08-16T21:52:37.120Z,10.97
2018-08-16T21:55:05.449Z,12.90
2018-08-16T21:57:34.656Z,10.70
2018-08-16T22:00:04.276Z,9.57
2018-08-16T22:02:33.140Z,9.40
2018-08-16T22:05:01.945Z,10.10
2018-08-16T22:08:12.581Z,11.73
2018-08-16T22:10:42.896Z,11.70
2018-08-16T22:13:12.352Z,11.13
2018-08-16T22:15:41.008Z,9.40
2018-08-16T22:18:10.764Z,11.43
2018-08-16T22:20:39.531Z,12.20
2018-08-16T22:23:08.212Z,10.90
2018-08-16T22:25:40.882Z,12.07
2018-08-16T22:28:09.532Z,9.57
2018-08-16T22:30:38.992Z,9.10
2018-08-16T22:33:08.361Z,9.37
2018-08-16T22:35:37.099Z,9.90
2018-08-16T22:38:07.869Z,8.33
2018-08-16T22:40:37.515Z,18.07
2018-08-16T22:43:07.047Z,9.63
2018-08-16T22:45:39.924Z,13.33
2018-08-16T22:48:10.450Z,8.67
2018-08-16T22:53:21.973Z,9.23
2018-08-16T22:55:55.658Z,11.57
2018-08-16T22:58:27.326Z,11.60
2018-08-16T23:00:57.214Z,10.00
2018-08-16T23:03:28.320Z,7.10
2018-08-16T23:06:04.692Z,6.13
2018-08-16T23:08:36.038Z,6.77
2018-08-16T23:11:13.590Z,6.07
2018-08-16T23:13:46.943Z,5.67
2018-08-16T23:16:17.311Z,5.00
2018-08-16T23:18:48.916Z,6.10
2018-08-16T23:21:22.907Z,5.50
2018-08-16T23:23:53.792Z,6.20
2018-08-16T23:26:24.073Z,6.83
2018-08-16T23:28:57.471Z,9.33
2018-08-16T23:31:27.310Z,9.73
2018-08-16T23:33:58.064Z,6.13
2018-08-16T23:36:28.122Z,6.80
2018-08-16T23:38:57.742Z,8.13
2018-08-16T23:41:27.805Z,8.10
2018-08-16T23:43:57.777Z,5.33
2018-08-16T23:46:29.284Z,7.50
2018-08-16T23:49:00.242Z,7.77
2018-08-16T23:51:34.024Z,7.47
2018-08-16T23:54:05.149Z,6.60
2018-08-16T23:56:35.079Z,10.30
2018-08-16T23:59:03.830Z,10.17
